sensor_id;sensor_type;location;lat;lon;timestamp;P1;durP1;ratioP1;P2;durP2;ratioP2
13034;SDS011;6584;48.022;11.810;2022-11-20T00:01:19;7.57;;;3.40;;
13034;SDS011;6584;48.022;11.810;2022-11-20T00:03:46;4.40;;;2.70;;
13034;SDS011;6584;48.022;11.810;2022-11-20T00:06:12;8.23;;;4.43;;
13034;SDS011;6584;48.022;11.810;2022-11-20T00:08:40;5.43;;;3.30;;
13034;SDS011;6584;48.022;11.810;2022-11-20T00:11:06;10.50;;;4.18;;
13034;SDS011;6584;48.022;11.810;2022-11-20T00:13:37;3.67;;;2.67;;
13034;SDS011;6584;48.022;11.810;2022-11-20T00:16:03;3.70;;;2.53;;
13034;SDS011;6584;48.022;11.810;2022-11-20T00:18:30;4.13;;;2.55;;
13034;SDS011;6584;48.022;11.810;2022-11-20T00:21:00;4.22;;;2.70;;
13034;SDS011;6584;48.022;11.810;2022-11-20T00:23:27;3.67;;;2.30;;
13034;SDS011;6584;48.022;11.810;2022-11-20T00:25:52;3.35;;;2.40;;
13034;SDS011;6584;48.022;11.810;2022-11-20T00:28:18;4.28;;;2.55;;
13034;SDS011;6584;48.022;11.810;2022-11-20T00:30:43;4.25;;;2.80;;
13034;SDS011;6584;48.022;11.810;2022-11-20T00:33:09;2.40;;;2.00;;
13034;SDS011;6584;48.022;11.810;2022-11-20T00:35:35;2.47;;;2.10;;
13034;SDS011;6584;48.022;11.810;2022-11-20T00:38:00;3.22;;;2.00;;
13034;SDS011;6584;48.022;11.810;2022-11-20T00:40:26;2.00;;;1.80;;
13034;SDS011;6584;48.022;11.810;2022-11-20T00:42:51;3.25;;;1.80;;
13034;SDS011;6584;48.022;11.810;2022-11-20T00:45:17;4.40;;;2.10;;
13034;SDS011;6584;48.022;11.810;2022-11-20T00:47:42;1.92;;;1.70;;
13034;SDS011;6584;48.022;11.810;2022-11-20T00:50:08;2.78;;;1.60;;
13034;SDS011;6584;48.022;11.810;2022-11-20T00:52:34;1.70;;;1.60;;
13034;SDS011;6584;48.022;11.810;2022-11-20T00:54:59;2.22;;;1.80;;
13034;SDS011;6584;48.022;11.810;2022-11-20T00:57:25;2.47;;;1.70;;
13034;SDS011;6584;48.022;11.810;2022-11-20T00:59:50;2.40;;;1.80;;
13034;SDS011;6584;48.022;11.810;2022-11-20T01:02:16;2.15;;;1.73;;
13034;SDS011;6584;48.022;11.810;2022-11-20T01:04:41;3.10;;;1.85;;
13034;SDS011;6584;48.022;11.810;2022-11-20T01:07:07;2.60;;;1.88;;
13034;SDS011;6584;48.022;11.810;2022-11-20T01:09:33;2.60;;;1.80;;
13034;SDS011;6584;48.022;11.810;2022-11-20T01:11:59;2.50;;;2.08;;
13034;SDS011;6584;48.022;11.810;2022-11-20T01:14:25;2.58;;;1.90;;
13034;SDS011;6584;48.022;11.810;2022-11-20T01:16:51;3.88;;;2.00;;
13034;SDS011;6584;48.022;11.810;2022-11-20T01:19:17;2.00;;;1.80;;
13034;SDS011;6584;48.022;11.810;2022-11-20T01:21:46;3.35;;;1.90;;
13034;SDS011;6584;48.022;11.810;2022-11-20T01:24:15;2.15;;;1.95;;
13034;SDS011;6584;48.022;11.810;2022-11-20T01:26:43;2.22;;;2.03;;
13034;SDS011;6584;48.022;11.810;2022-11-20T01:29:12;2.20;;;2.00;;
13034;SDS011;6584;48.022;11.810;2022-11-20T01:31:39;2.22;;;2.03;;
13034;SDS011;6584;48.022;11.810;2022-11-20T01:34:06;2.08;;;1.88;;
13034;SDS011;6584;48.022;11.810;2022-11-20T01:36:34;2.10;;;1.90;;
13034;SDS011;6584;48.022;11.810;2022-11-20T01:39:03;2.08;;;1.92;;
13034;SDS011;6584;48.022;11.810;2022-11-20T01:41:35;2.35;;;1.80;;
13034;SDS011;6584;48.022;11.810;2022-11-20T01:44:21;2.72;;;2.08;;
13034;SDS011;6584;48.022;11.810;2022-11-20T01:47:06;2.63;;;2.10;;
13034;SDS011;6584;48.022;11.810;2022-11-20T01:49:34;4.32;;;2.13;;
13034;SDS011;6584;48.022;11.810;2022-11-20T01:52:16;2.38;;;2.10;;
13034;SDS011;6584;48.022;11.810;2022-11-20T01:55:28;1.75;;;1.52;;
13034;SDS011;6584;48.022;11.810;2022-11-20T01:57:36;2.88;;;1.98;;
13034;SDS011;6584;48.022;11.810;2022-11-20T02:00:05;2.25;;;1.90;;
13034;SDS011;6584;48.022;11.810;2022-11-20T02:02:34;2.40;;;2.20;;
13034;SDS011;6584;48.022;11.810;2022-11-20T02:05:03;8.88;;;2.13;;
13034;SDS011;6584;48.022;11.810;2022-11-20T02:07:43;2.60;;;2.10;;
13034;SDS011;6584;48.022;11.810;2022-11-20T02:10:09;5.18;;;2.17;;
13034;SDS011;6584;48.022;11.810;2022-11-20T02:12:36;2.30;;;2.08;;
13034;SDS011;6584;48.022;11.810;2022-11-20T02:15:20;2.78;;;2.10;;
13034;SDS011;6584;48.022;11.810;2022-11-20T02:17:45;2.10;;;1.90;;
13034;SDS011;6584;48.022;11.810;2022-11-20T02:20:11;2.33;;;2.13;;
13034;SDS011;6584;48.022;11.810;2022-11-20T02:22:43;2.85;;;2.05;;
13034;SDS011;6584;48.022;11.810;2022-11-20T02:25:28;2.40;;;2.17;;
13034;SDS011;6584;48.022;11.810;2022-11-20T02:27:56;4.50;;;2.30;;
13034;SDS011;6584;48.022;11.810;2022-11-20T02:30:22;2.53;;;1.95;;
13034;SDS011;6584;48.022;11.810;2022-11-20T02:32:48;2.53;;;2.03;;
13034;SDS011;6584;48.022;11.810;2022-11-20T02:37:45;2.10;;;1.90;;
13034;SDS011;6584;48.022;11.810;2022-11-20T02:40:13;2.22;;;1.98;;
13034;SDS011;6584;48.022;11.810;2022-11-20T02:42:39;2.42;;;2.20;;
13034;SDS011;6584;48.022;11.810;2022-11-20T02:45:05;2.10;;;1.90;;
13034;SDS011;6584;48.022;11.810;2022-11-20T02:47:31;2.42;;;1.92;;
13034;SDS011;6584;48.022;11.810;2022-11-20T02:49:57;2.33;;;2.13;;
13034;SDS011;6584;48.022;11.810;2022-11-20T02:52:23;2.13;;;2.00;;
13034;SDS011;6584;48.022;11.810;2022-11-20T02:54:49;2.47;;;2.28;;
13034;SDS011;6584;48.022;11.810;2022-11-20T02:57:15;3.05;;;2.38;;
13034;SDS011;6584;48.022;11.810;2022-11-20T02:59:40;2.25;;;2.05;;
13034;SDS011;6584;48.022;11.810;2022-11-20T03:02:06;2.83;;;2.33;;
13034;SDS011;6584;48.022;11.810;2022-11-20T03:04:31;2.70;;;2.38;;
13034;SDS011;6584;48.022;11.810;2022-11-20T03:06:57;2.83;;;2.03;;
13034;SDS011;6584;48.022;11.810;2022-11-20T03:09:23;3.00;;;2.40;;
13034;SDS011;6584;48.022;11.810;2022-11-20T03:11:48;2.35;;;2.15;;
13034;SDS011;6584;48.022;11.810;2022-11-20T03:14:14;2.20;;;1.98;;
13034;SDS011;6584;48.022;11.810;2022-11-20T03:16:39;2.83;;;2.53;;
13034;SDS011;6584;48.022;11.810;2022-11-20T03:19:05;2.47;;;2.28;;
13034;SDS011;6584;48.022;11.810;2022-11-20T03:21:34;3.47;;;2.20;;
13034;SDS011;6584;48.022;11.810;2022-11-20T03:24:00;2.28;;;2.08;;
13034;SDS011;6584;48.022;11.810;2022-11-20T03:26:26;2.72;;;2.22;;
13034;SDS011;6584;48.022;11.810;2022-11-20T03:28:54;2.70;;;2.38;;
13034;SDS011;6584;48.022;11.810;2022-11-20T03:31:30;3.05;;;2.20;;
13034;SDS011;6584;48.022;11.810;2022-11-20T03:33:59;2.53;;;2.33;;
13034;SDS011;6584;48.022;11.810;2022-11-20T03:36:25;3.47;;;2.30;;
13034;SDS011;6584;48.022;11.810;2022-11-20T03:38:52;2.55;;;2.10;;
13034;SDS011;6584;48.022;11.810;2022-11-20T03:41:19;3.42;;;2.28;;
13034;SDS011;6584;48.022;11.810;2022-11-20T03:46:19;3.47;;;2.28;;
13034;SDS011;6584;48.022;11.810;2022-11-20T03:48:45;2.35;;;2.15;;
13034;SDS011;6584;48.022;11.810;2022-11-20T03:53:38;2.17;;;2.00;;
13034;SDS011;6584;48.022;11.810;2022-11-20T03:56:04;2.78;;;2.30;;
13034;SDS011;6584;48.022;11.810;2022-11-20T03:58:30;2.40;;;2.20;;
13034;SDS011;6584;48.022;11.810;2022-11-20T04:00:57;2.22;;;2.00;;
13034;SDS011;6584;48.022;11.810;2022-11-20T04:03:22;2.58;;;2.20;;
13034;SDS011;6584;48.022;11.810;2022-11-20T04:05:48;4.25;;;2.35;;
13034;SDS011;6584;48.022;11.810;2022-11-20T04:08:13;3.70;;;2.50;;
13034;SDS011;6584;48.022;11.810;2022-11-20T04:10:39;2.88;;;2.65;;
13034;SDS011;6584;48.022;11.810;2022-11-20T04:13:04;3.30;;;2.92;;
13034;SDS011;6584;48.022;11.810;2022-11-20T04:15:30;2.88;;;2.47;;
13034;SDS011;6584;48.022;11.810;2022-11-20T04:17:55;2.60;;;2.40;;
13034;SDS011;6584;48.022;11.810;2022-11-20T04:20:21;3.42;;;2.40;;
13034;SDS011;6584;48.022;11.810;2022-11-20T04:22:46;2.78;;;2.30;;
13034;SDS011;6584;48.022;11.810;2022-11-20T04:25:12;2.60;;;2.40;;
13034;SDS011;6584;48.022;11.810;2022-11-20T04:27:38;2.88;;;2.67;;
13034;SDS011;6584;48.022;11.810;2022-11-20T04:30:03;2.67;;;2.47;;
13034;SDS011;6584;48.022;11.810;2022-11-20T04:32:29;2.65;;;2.22;;
13034;SDS011;6584;48.022;11.810;2022-11-20T04:34:55;2.60;;;2.40;;
13034;SDS011;6584;48.022;11.810;2022-11-20T04:37:20;2.72;;;2.53;;
13034;SDS011;6584;48.022;11.810;2022-11-20T04:39:46;4.07;;;2.40;;
13034;SDS011;6584;48.022;11.810;2022-11-20T04:42:11;2.95;;;2.63;;
13034;SDS011;6584;48.022;11.810;2022-11-20T04:44:55;3.00;;;2.45;;
13034;SDS011;6584;48.022;11.810;2022-11-20T04:47:21;2.70;;;2.40;;
13034;SDS011;6584;48.022;11.810;2022-11-20T04:49:47;3.92;;;2.35;;
13034;SDS011;6584;48.022;11.810;2022-11-20T04:52:13;2.85;;;2.45;;
13034;SDS011;6584;48.022;11.810;2022-11-20T04:54:38;3.45;;;2.65;;
13034;SDS011;6584;48.022;11.810;2022-11-20T04:57:04;3.45;;;2.20;;
13034;SDS011;6584;48.022;11.810;2022-11-20T04:59:30;2.35;;;2.15;;
13034;SDS011;6584;48.022;11.810;2022-11-20T05:01:56;2.60;;;2.40;;
13034;SDS011;6584;48.022;11.810;2022-11-20T05:04:22;2.92;;;2.17;;
13034;SDS011;6584;48.022;11.810;2022-11-20T05:06:49;2.33;;;2.10;;
13034;SDS011;6584;48.022;11.810;2022-11-20T05:09:15;3.33;;;2.30;;
13034;SDS011;6584;48.022;11.810;2022-11-20T05:11:40;3.55;;;2.50;;
13034;SDS011;6584;48.022;11.810;2022-11-20T05:14:06;2.40;;;2.20;;
13034;SDS011;6584;48.022;11.810;2022-11-20T05:16:33;2.80;;;2.60;;
13034;SDS011;6584;48.022;11.810;2022-11-20T05:18:59;2.53;;;2.30;;
13034;SDS011;6584;48.022;11.810;2022-11-20T05:21:25;3.15;;;2.42;;
13034;SDS011;6584;48.022;11.810;2022-11-20T05:23:50;3.47;;;2.20;;
13034;SDS011;6584;48.022;11.810;2022-11-20T05:26:20;3.05;;;2.25;;
13034;SDS011;6584;48.022;11.810;2022-11-20T05:28:46;2.45;;;2.25;;
13034;SDS011;6584;48.022;11.810;2022-11-20T05:31:14;2.85;;;2.03;;
13034;SDS011;6584;48.022;11.810;2022-11-20T05:33:41;2.20;;;1.98;;
13034;SDS011;6584;48.022;11.810;2022-11-20T05:36:08;2.22;;;2.00;;
13034;SDS011;6584;48.022;11.810;2022-11-20T05:38:34;2.40;;;2.20;;
13034;SDS011;6584;48.022;11.810;2022-11-20T05:41:04;2.97;;;2.50;;
13034;SDS011;6584;48.022;11.810;2022-11-20T05:43:37;2.75;;;2.45;;
13034;SDS011;6584;48.022;11.810;2022-11-20T05:46:05;2.92;;;2.50;;
13034;SDS011;6584;48.022;11.810;2022-11-20T05:48:32;3.45;;;2.75;;
13034;SDS011;6584;48.022;11.810;2022-11-20T05:50:59;2.75;;;2.55;;
13034;SDS011;6584;48.022;11.810;2022-11-20T05:53:25;3.08;;;2.78;;
13034;SDS011;6584;48.022;11.810;2022-11-20T05:56:04;4.30;;;2.92;;
13034;SDS011;6584;48.022;11.810;2022-11-20T05:58:32;3.78;;;2.72;;
13034;SDS011;6584;48.022;11.810;2022-11-20T06:01:12;3.63;;;2.92;;
13034;SDS011;6584;48.022;11.810;2022-11-20T06:03:43;3.75;;;3.28;;
13034;SDS011;6584;48.022;11.810;2022-11-20T06:06:13;3.75;;;3.30;;
13034;SDS011;6584;48.022;11.810;2022-11-20T06:08:39;3.55;;;3.25;;
13034;SDS011;6584;48.022;11.810;2022-11-20T06:11:06;3.80;;;3.38;;
13034;SDS011;6584;48.022;11.810;2022-11-20T06:13:32;4.25;;;3.85;;
13034;SDS011;6584;48.022;11.810;2022-11-20T06:15:58;3.67;;;3.30;;
13034;SDS011;6584;48.022;11.810;2022-11-20T06:18:25;3.92;;;3.53;;
13034;SDS011;6584;48.022;11.810;2022-11-20T06:21:04;3.85;;;3.45;;
13034;SDS011;6584;48.022;11.810;2022-11-20T06:23:38;4.43;;;3.45;;
13034;SDS011;6584;48.022;11.810;2022-11-20T06:26:04;4.63;;;3.42;;
13034;SDS011;6584;48.022;11.810;2022-11-20T06:28:35;4.13;;;3.42;;
13034;SDS011;6584;48.022;11.810;2022-11-20T06:31:00;4.20;;;3.35;;
13034;SDS011;6584;48.022;11.810;2022-11-20T06:33:26;5.35;;;3.75;;
13034;SDS011;6584;48.022;11.810;2022-11-20T06:35:55;3.85;;;3.45;;
13034;SDS011;6584;48.022;11.810;2022-11-20T06:38:22;3.50;;;3.20;;
13034;SDS011;6584;48.022;11.810;2022-11-20T06:40:48;4.07;;;3.40;;
13034;SDS011;6584;48.022;11.810;2022-11-20T06:43:13;3.75;;;3.22;;
13034;SDS011;6584;48.022;11.810;2022-11-20T06:45:40;4.03;;;3.05;;
13034;SDS011;6584;48.022;11.810;2022-11-20T06:48:06;4.30;;;2.85;;
13034;SDS011;6584;48.022;11.810;2022-11-20T06:50:31;4.15;;;3.05;;
13034;SDS011;6584;48.022;11.810;2022-11-20T06:53:00;3.00;;;2.70;;
13034;SDS011;6584;48.022;11.810;2022-11-20T06:55:26;2.92;;;2.72;;
13034;SDS011;6584;48.022;11.810;2022-11-20T06:57:51;3.13;;;2.83;;
13034;SDS011;6584;48.022;11.810;2022-11-20T07:00:17;3.55;;;2.78;;
13034;SDS011;6584;48.022;11.810;2022-11-20T07:02:43;3.33;;;2.70;;
13034;SDS011;6584;48.022;11.810;2022-11-20T07:05:08;3.03;;;2.80;;
13034;SDS011;6584;48.022;11.810;2022-11-20T07:07:34;3.28;;;2.47;;
13034;SDS011;6584;48.022;11.810;2022-11-20T07:09:59;2.85;;;2.58;;
13034;SDS011;6584;48.022;11.810;2022-11-20T07:12:25;4.45;;;2.80;;
13034;SDS011;6584;48.022;11.810;2022-11-20T07:14:51;3.05;;;2.75;;
13034;SDS011;6584;48.022;11.810;2022-11-20T07:17:16;3.50;;;2.88;;
13034;SDS011;6584;48.022;11.810;2022-11-20T07:19:42;2.63;;;2.33;;
13034;SDS011;6584;48.022;11.810;2022-11-20T07:22:08;3.55;;;2.45;;
13034;SDS011;6584;48.022;11.810;2022-11-20T07:24:33;3.10;;;2.80;;
13034;SDS011;6584;48.022;11.810;2022-11-20T07:26:59;3.28;;;2.70;;
13034;SDS011;6584;48.022;11.810;2022-11-20T07:29:25;3.60;;;2.92;;
13034;SDS011;6584;48.022;11.810;2022-11-20T07:31:51;2.65;;;2.40;;
13034;SDS011;6584;48.022;11.810;2022-11-20T07:34:16;3.83;;;3.42;;
13034;SDS011;6584;48.022;11.810;2022-11-20T07:36:42;2.88;;;2.67;;
13034;SDS011;6584;48.022;11.810;2022-11-20T07:39:07;3.22;;;2.90;;
13034;SDS011;6584;48.022;11.810;2022-11-20T07:41:33;2.60;;;2.40;;
13034;SDS011;6584;48.022;11.810;2022-11-20T07:43:59;3.33;;;2.90;;
13034;SDS011;6584;48.022;11.810;2022-11-20T07:46:24;3.08;;;2.67;;
13034;SDS011;6584;48.022;11.810;2022-11-20T07:48:50;3.00;;;2.80;;
13034;SDS011;6584;48.022;11.810;2022-11-20T07:51:15;4.93;;;2.97;;
13034;SDS011;6584;48.022;11.810;2022-11-20T07:53:41;4.10;;;2.63;;
13034;SDS011;6584;48.022;11.810;2022-11-20T07:56:06;3.17;;;2.88;;
13034;SDS011;6584;48.022;11.810;2022-11-20T07:58:32;3.20;;;2.90;;
13034;SDS011;6584;48.022;11.810;2022-11-20T08:01:05;3.05;;;2.67;;
13034;SDS011;6584;48.022;11.810;2022-11-20T08:03:32;3.22;;;2.60;;
13034;SDS011;6584;48.022;11.810;2022-11-20T08:06:00;2.90;;;2.60;;
13034;SDS011;6584;48.022;11.810;2022-11-20T08:08:27;3.28;;;2.95;;
13034;SDS011;6584;48.022;11.810;2022-11-20T08:10:53;3.22;;;2.40;;
13034;SDS011;6584;48.022;11.810;2022-11-20T08:13:38;2.47;;;2.28;;
13034;SDS011;6584;48.022;11.810;2022-11-20T08:16:23;3.75;;;2.72;;
13034;SDS011;6584;48.022;11.810;2022-11-20T08:18:48;3.05;;;2.50;;
13034;SDS011;6584;48.022;11.810;2022-11-20T08:21:14;2.78;;;2.15;;
13034;SDS011;6584;48.022;11.810;2022-11-20T08:23:40;2.40;;;2.20;;
13034;SDS011;6584;48.022;11.810;2022-11-20T08:26:05;2.92;;;2.25;;
13034;SDS011;6584;48.022;11.810;2022-11-20T08:28:31;2.55;;;2.33;;
13034;SDS011;6584;48.022;11.810;2022-11-20T08:30:58;2.72;;;2.25;;
13034;SDS011;6584;48.022;11.810;2022-11-20T08:33:25;3.30;;;2.38;;
13034;SDS011;6584;48.022;11.810;2022-11-20T08:35:50;2.20;;;2.00;;
13034;SDS011;6584;48.022;11.810;2022-11-20T08:38:16;2.28;;;1.95;;
13034;SDS011;6584;48.022;11.810;2022-11-20T08:40:41;1.92;;;1.80;;
13034;SDS011;6584;48.022;11.810;2022-11-20T08:43:30;2.72;;;2.15;;
13034;SDS011;6584;48.022;11.810;2022-11-20T08:46:04;2.70;;;2.05;;
13034;SDS011;6584;48.022;11.810;2022-11-20T08:48:30;2.40;;;2.20;;
13034;SDS011;6584;48.022;11.810;2022-11-20T08:50:57;2.67;;;2.40;;
13034;SDS011;6584;48.022;11.810;2022-11-20T08:53:23;2.10;;;1.90;;
13034;SDS011;6584;48.022;11.810;2022-11-20T08:55:49;3.05;;;2.03;;
13034;SDS011;6584;48.022;11.810;2022-11-20T08:58:15;2.10;;;1.90;;
13034;SDS011;6584;48.022;11.810;2022-11-20T09:00:40;2.10;;;1.90;;
13034;SDS011;6584;48.022;11.810;2022-11-20T09:03:06;2.58;;;2.25;;
13034;SDS011;6584;48.022;11.810;2022-11-20T09:05:31;2.25;;;2.03;;
13034;SDS011;6584;48.022;11.810;2022-11-20T09:07:57;3.25;;;1.90;;
13034;SDS011;6584;48.022;11.810;2022-11-20T09:10:23;2.25;;;2.05;;
13034;SDS011;6584;48.022;11.810;2022-11-20T09:12:50;2.25;;;2.05;;
13034;SDS011;6584;48.022;11.810;2022-11-20T09:15:16;2.08;;;1.75;;
13034;SDS011;6584;48.022;11.810;2022-11-20T09:17:42;2.20;;;2.00;;
13034;SDS011;6584;48.022;11.810;2022-11-20T09:20:14;2.83;;;1.98;;
13034;SDS011;6584;48.022;11.810;2022-11-20T09:22:41;1.90;;;1.58;;
13034;SDS011;6584;48.022;11.810;2022-11-20T09:25:06;2.22;;;1.80;;
13034;SDS011;6584;48.022;11.810;2022-11-20T09:27:32;2.80;;;2.20;;
13034;SDS011;6584;48.022;11.810;2022-11-20T09:29:58;2.10;;;1.90;;
13034;SDS011;6584;48.022;11.810;2022-11-20T09:32:23;2.10;;;1.73;;
13034;SDS011;6584;48.022;11.810;2022-11-20T09:34:49;2.25;;;1.80;;
13034;SDS011;6584;48.022;11.810;2022-11-20T09:37:14;1.70;;;1.60;;
13034;SDS011;6584;48.022;11.810;2022-11-20T09:39:40;2.20;;;1.77;;
13034;SDS011;6584;48.022;11.810;2022-11-20T09:42:19;2.22;;;2.03;;
13034;SDS011;6584;48.022;11.810;2022-11-20T09:44:54;1.98;;;1.77;;
13034;SDS011;6584;48.022;11.810;2022-11-20T09:47:26;2.22;;;1.70;;
13034;SDS011;6584;48.022;11.810;2022-11-20T09:52:52;1.73;;;1.50;;
13034;SDS011;6584;48.022;11.810;2022-11-20T09:55:24;2.28;;;1.65;;
13034;SDS011;6584;48.022;11.810;2022-11-20T09:57:50;2.75;;;1.70;;
13034;SDS011;6584;48.022;11.810;2022-11-20T10:00:17;2.42;;;1.52;;
13034;SDS011;6584;48.022;11.810;2022-11-20T10:02:59;1.92;;;1.42;;
13034;SDS011;6584;48.022;11.810;2022-11-20T10:05:41;1.42;;;1.33;;
13034;SDS011;6584;48.022;11.810;2022-11-20T10:10:47;1.38;;;1.27;;
13034;SDS011;6584;48.022;11.810;2022-11-20T10:13:31;1.40;;;1.30;;
13034;SDS011;6584;48.022;11.810;2022-11-20T10:27:33;1.15;;;1.05;;
13034;SDS011;6584;48.022;11.810;2022-11-20T10:30:18;1.42;;;1.30;;
13034;SDS011;6584;48.022;11.810;2022-11-20T10:32:58;2.55;;;1.35;;
13034;SDS011;6584;48.022;11.810;2022-11-20T10:35:36;1.33;;;1.23;;
13034;SDS011;6584;48.022;11.810;2022-11-20T10:38:12;1.40;;;1.30;;
13034;SDS011;6584;48.022;11.810;2022-11-20T10:40:45;2.10;;;1.50;;
13034;SDS011;6584;48.022;11.810;2022-11-20T10:43:27;1.77;;;1.25;;
13034;SDS011;6584;48.022;11.810;2022-11-20T10:45:58;1.48;;;1.30;;
13034;SDS011;6584;48.022;11.810;2022-11-20T10:48:30;1.30;;;1.20;;
13034;SDS011;6584;48.022;11.810;2022-11-20T10:54:17;1.92;;;1.40;;
13034;SDS011;6584;48.022;11.810;2022-11-20T11:00:24;1.55;;;1.38;;
13034;SDS011;6584;48.022;11.810;2022-11-20T11:02:50;2.20;;;1.38;;
13034;SDS011;6584;48.022;11.810;2022-11-20T11:05:35;1.27;;;1.15;;
13034;SDS011;6584;48.022;11.810;2022-11-20T11:08:04;1.25;;;1.05;;
13034;SDS011;6584;48.022;11.810;2022-11-20T11:13:07;1.10;;;1.00;;
13034;SDS011;6584;48.022;11.810;2022-11-20T11:18:05;1.30;;;0.90;;
13034;SDS011;6584;48.022;11.810;2022-11-20T11:20:34;1.25;;;1.00;;
13034;SDS011;6584;48.022;11.810;2022-11-20T11:23:00;1.23;;;1.13;;
13034;SDS011;6584;48.022;11.810;2022-11-20T11:27:54;1.40;;;1.27;;
13034;SDS011;6584;48.022;11.810;2022-11-20T11:30:26;1.30;;;1.10;;
13034;SDS011;6584;48.022;11.810;2022-11-20T11:33:06;2.08;;;1.23;;
13034;SDS011;6584;48.022;11.810;2022-11-20T11:35:38;1.70;;;1.20;;
13034;SDS011;6584;48.022;11.810;2022-11-20T11:38:13;1.30;;;1.10;;
13034;SDS011;6584;48.022;11.810;2022-11-20T11:40:47;2.63;;;1.00;;
13034;SDS011;6584;48.022;11.810;2022-11-20T11:43:19;1.35;;;1.23;;
13034;SDS011;6584;48.022;11.810;2022-11-20T11:48:55;1.30;;;1.10;;
13034;SDS011;6584;48.022;11.810;2022-11-20T11:51:25;1.20;;;1.10;;
13034;SDS011;6584;48.022;11.810;2022-11-20T11:54:19;1.23;;;1.10;;
13034;SDS011;6584;48.022;11.810;2022-11-20T11:56:49;2.15;;;0.98;;
13034;SDS011;6584;48.022;11.810;2022-11-20T11:59:20;1.20;;;1.10;;
13034;SDS011;6584;48.022;11.810;2022-11-20T12:01:55;1.20;;;1.10;;
13034;SDS011;6584;48.022;11.810;2022-11-20T12:10:12;1.63;;;1.10;;
13034;SDS011;6584;48.022;11.810;2022-11-20T12:15:47;2.15;;;1.70;;
13034;SDS011;6584;48.022;11.810;2022-11-20T12:18:17;1.40;;;1.17;;
13034;SDS011;6584;48.022;11.810;2022-11-20T12:20:52;2.28;;;1.33;;
13034;SDS011;6584;48.022;11.810;2022-11-20T12:26:03;1.30;;;1.00;;
13034;SDS011;6584;48.022;11.810;2022-11-20T12:33:47;1.58;;;1.38;;
13034;SDS011;6584;48.022;11.810;2022-11-20T12:36:37;1.60;;;1.10;;
13034;SDS011;6584;48.022;11.810;2022-11-20T12:44:59;1.30;;;1.20;;
13034;SDS011;6584;48.022;11.810;2022-11-20T12:50:17;1.42;;;1.33;;
13034;SDS011;6584;48.022;11.810;2022-11-20T12:53:22;1.23;;;1.13;;
13034;SDS011;6584;48.022;11.810;2022-11-20T12:58:39;1.40;;;1.30;;
13034;SDS011;6584;48.022;11.810;2022-11-20T13:06:45;3.13;;;1.85;;
13034;SDS011;6584;48.022;11.810;2022-11-20T13:09:11;3.20;;;2.53;;
13034;SDS011;6584;48.022;11.810;2022-11-20T13:17:38;1.33;;;1.23;;
13034;SDS011;6584;48.022;11.810;2022-11-20T13:20:15;1.90;;;1.70;;
13034;SDS011;6584;48.022;11.810;2022-11-20T13:25:31;1.92;;;1.67;;
13034;SDS011;6584;48.022;11.810;2022-11-20T13:27:59;1.30;;;1.20;;
13034;SDS011;6584;48.022;11.810;2022-11-20T13:30:28;1.55;;;1.27;;
13034;SDS011;6584;48.022;11.810;2022-11-20T13:35:32;1.88;;;1.50;;
13034;SDS011;6584;48.022;11.810;2022-11-20T13:38:17;1.65;;;1.55;;
13034;SDS011;6584;48.022;11.810;2022-11-20T13:43:35;1.60;;;1.50;;
13034;SDS011;6584;48.022;11.810;2022-11-20T13:46:05;1.95;;;1.52;;
13034;SDS011;6584;48.022;11.810;2022-11-20T13:48:42;1.48;;;1.38;;
13034;SDS011;6584;48.022;11.810;2022-11-20T13:51:22;1.95;;;1.85;;
13034;SDS011;6584;48.022;11.810;2022-11-20T13:59:43;2.75;;;1.80;;
13034;SDS011;6584;48.022;11.810;2022-11-20T14:02:35;1.83;;;1.40;;
13034;SDS011;6584;48.022;11.810;2022-11-20T14:05:01;1.70;;;1.60;;
13034;SDS011;6584;48.022;11.810;2022-11-20T14:07:37;1.63;;;1.50;;
13034;SDS011;6584;48.022;11.810;2022-11-20T14:10:05;1.50;;;1.40;;
13034;SDS011;6584;48.022;11.810;2022-11-20T14:12:43;2.38;;;1.50;;
13034;SDS011;6584;48.022;11.810;2022-11-20T14:15:23;2.28;;;1.27;;
13034;SDS011;6584;48.022;11.810;2022-11-20T14:17:53;1.50;;;1.40;;
13034;SDS011;6584;48.022;11.810;2022-11-20T14:20:19;1.77;;;1.50;;
13034;SDS011;6584;48.022;11.810;2022-11-20T14:22:48;1.80;;;1.42;;
13034;SDS011;6584;48.022;11.810;2022-11-20T14:27:42;2.15;;;1.58;;
13034;SDS011;6584;48.022;11.810;2022-11-20T14:30:12;1.67;;;1.58;;
13034;SDS011;6584;48.022;11.810;2022-11-20T14:32:39;3.50;;;1.50;;
13034;SDS011;6584;48.022;11.810;2022-11-20T14:35:07;1.65;;;1.50;;
13034;SDS011;6584;48.022;11.810;2022-11-20T14:37:37;2.13;;;1.35;;
13034;SDS011;6584;48.022;11.810;2022-11-20T14:40:21;2.03;;;1.80;;
13034;SDS011;6584;48.022;11.810;2022-11-20T14:42:47;1.45;;;1.33;;
13034;SDS011;6584;48.022;11.810;2022-11-20T14:45:13;2.20;;;1.65;;
13034;SDS011;6584;48.022;11.810;2022-11-20T14:47:39;1.50;;;1.40;;
13034;SDS011;6584;48.022;11.810;2022-11-20T14:50:11;1.52;;;1.20;;
13034;SDS011;6584;48.022;11.810;2022-11-20T14:52:51;1.90;;;1.30;;
13034;SDS011;6584;48.022;11.810;2022-11-20T14:55:54;1.52;;;1.30;;
13034;SDS011;6584;48.022;11.810;2022-11-20T14:58:23;1.98;;;1.40;;
13034;SDS011;6584;48.022;11.810;2022-11-20T15:01:00;8.02;;;7.03;;
13034;SDS011;6584;48.022;11.810;2022-11-20T15:03:46;2.35;;;1.88;;
13034;SDS011;6584;48.022;11.810;2022-11-20T15:06:27;1.50;;;1.40;;
13034;SDS011;6584;48.022;11.810;2022-11-20T15:08:53;1.80;;;1.60;;
13034;SDS011;6584;48.022;11.810;2022-11-20T15:11:19;1.50;;;1.40;;
13034;SDS011;6584;48.022;11.810;2022-11-20T15:13:52;2.17;;;1.30;;
13034;SDS011;6584;48.022;11.810;2022-11-20T15:16:18;1.85;;;1.35;;
13034;SDS011;6584;48.022;11.810;2022-11-20T15:18:45;2.22;;;1.20;;
13034;SDS011;6584;48.022;11.810;2022-11-20T15:21:13;1.38;;;1.10;;
13034;SDS011;6584;48.022;11.810;2022-11-20T15:23:41;1.75;;;1.10;;
13034;SDS011;6584;48.022;11.810;2022-11-20T15:26:07;1.42;;;1.10;;
13034;SDS011;6584;48.022;11.810;2022-11-20T15:28:41;1.10;;;1.00;;
13034;SDS011;6584;48.022;11.810;2022-11-20T15:31:12;3.88;;;1.00;;
13034;SDS011;6584;48.022;11.810;2022-11-20T15:33:39;1.08;;;0.82;;
13034;SDS011;6584;48.022;11.810;2022-11-20T15:36:05;1.10;;;1.00;;
13034;SDS011;6584;48.022;11.810;2022-11-20T15:38:33;1.10;;;1.00;;
13034;SDS011;6584;48.022;11.810;2022-11-20T15:40:59;1.55;;;1.15;;
13034;SDS011;6584;48.022;11.810;2022-11-20T15:43:24;2.05;;;1.10;;
13034;SDS011;6584;48.022;11.810;2022-11-20T15:45:51;0.88;;;0.80;;
13034;SDS011;6584;48.022;11.810;2022-11-20T15:48:51;1.20;;;1.00;;
13034;SDS011;6584;48.022;11.810;2022-11-20T15:51:21;1.42;;;1.05;;
13034;SDS011;6584;48.022;11.810;2022-11-20T15:53:54;1.15;;;1.05;;
13034;SDS011;6584;48.022;11.810;2022-11-20T15:56:20;1.20;;;1.10;;
13034;SDS011;6584;48.022;11.810;2022-11-20T15:58:46;1.10;;;1.00;;
13034;SDS011;6584;48.022;11.810;2022-11-20T16:01:12;1.45;;;1.08;;
13034;SDS011;6584;48.022;11.810;2022-11-20T16:03:39;1.15;;;1.02;;
13034;SDS011;6584;48.022;11.810;2022-11-20T16:06:06;2.55;;;2.35;;
13034;SDS011;6584;48.022;11.810;2022-11-20T16:08:31;2.75;;;2.20;;
13034;SDS011;6584;48.022;11.810;2022-11-20T16:10:57;2.25;;;2.00;;
13034;SDS011;6584;48.022;11.810;2022-11-20T16:13:23;3.55;;;1.80;;
13034;SDS011;6584;48.022;11.810;2022-11-20T16:16:07;2.33;;;1.45;;
13034;SDS011;6584;48.022;11.810;2022-11-20T16:18:39;1.50;;;1.40;;
13034;SDS011;6584;48.022;11.810;2022-11-20T16:21:10;1.50;;;1.40;;
13034;SDS011;6584;48.022;11.810;2022-11-20T16:23:36;2.35;;;1.00;;
13034;SDS011;6584;48.022;11.810;2022-11-20T16:26:08;1.33;;;1.23;;
13034;SDS011;6584;48.022;11.810;2022-11-20T16:28:35;1.25;;;1.10;;
13034;SDS011;6584;48.022;11.810;2022-11-20T16:31:07;1.55;;;1.20;;
13034;SDS011;6584;48.022;11.810;2022-11-20T16:33:39;1.20;;;1.10;;
13034;SDS011;6584;48.022;11.810;2022-11-20T16:36:06;1.95;;;1.20;;
13034;SDS011;6584;48.022;11.810;2022-11-20T16:38:33;1.75;;;1.00;;